Back to Top

Language: 

My Weather Underground Personal Weather Station Historical Data with Graphs...

Delerius Weather Station Historical Data
Daily Summary for February 6, 2017 Units:  English    Metric   Both
« Previous Day
Next Day »
Daily Weekly Monthly Yearly Custom
  High: Low: Average:
Temperature: 43.4 °F 27.3 °F 35.4 °F
Dew Point: 39.3 °F 26.3 °F 33.3 °F
Humidity: 98 % 78 % 92 %
Wind Speed: 15.0 mph 0.0 mph 4.7 mph
Wind Gust: 19.0 mph - -
Wind:- - SSE
Pressure: 30.07 in 29.85 in -
Precipitation: 0.15 in    
Historical Graphs
 
 
Tabular Data for February 6, 2017
Time Temperature Dew Point Pressure Wind Wind Speed Wind Gust Humidity Rainfall Rate (Hourly) solar Conditions
00:00 32.1 °F 30.3 °F 29.99 in Calm   -999.0 mph 93 % 0.00 in 0 W/m2
00:05 32.1 °F 30.3 °F 29.99 in Calm   -999.0 mph 93 % 0.00 in 0 W/m2
00:10 32.1 °F 30.3 °F 29.99 in Calm   -999.0 mph 93 % 0.00 in 0 W/m2
00:15 32.1 °F 30.3 °F 29.99 in Calm   -999.0 mph 93 % 0.00 in 0 W/m2
00:20 32.1 °F 30.3 °F 29.99 in Calm   -999.0 mph 93 % 0.00 in 0 W/m2
00:25 31.1 °F 29.6 °F 29.99 in Calm   -999.0 mph 94 % 0.00 in 0 W/m2
00:30 31.1 °F 29.6 °F 29.99 in Calm   -999.0 mph 94 % 0.00 in 0 W/m2
00:35 31.1 °F 29.6 °F 29.99 in Calm   -999.0 mph 94 % 0.00 in 0 W/m2
00:40 31.1 °F 29.8 °F 29.99 in Calm   -999.0 mph 95 % 0.00 in 0 W/m2
00:45 31.1 °F 29.8 °F 29.99 in Calm   -999.0 mph 95 % 0.00 in 0 W/m2
00:50 31.1 °F 29.8 °F 29.99 in Calm   -999.0 mph 95 % 0.00 in 0 W/m2
00:55 31.6 °F 30.3 °F 29.99 in Calm   -999.0 mph 95 % 0.00 in 0 W/m2
01:00 31.6 °F 30.3 °F 29.99 in Calm   -999.0 mph 95 % 0.00 in 0 W/m2
01:05 31.6 °F 30.3 °F 29.99 in Calm   -999.0 mph 95 % 0.00 in 0 W/m2
01:10 31.7 °F 30.4 °F 30.00 in Calm   -999.0 mph 95 % 0.00 in 0 W/m2
01:15 31.7 °F 30.4 °F 30.00 in Calm   -999.0 mph 95 % 0.00 in 0 W/m2
01:20 31.7 °F 30.4 °F 30.00 in Calm   -999.0 mph 95 % 0.00 in 0 W/m2
01:25 31.4 °F 30.1 °F 30.01 in Calm   -999.0 mph 95 % 0.00 in 0 W/m2
01:30 31.4 °F 30.1 °F 30.01 in Calm   -999.0 mph 95 % 0.00 in 0 W/m2
01:35 31.4 °F 30.1 °F 30.01 in Calm   -999.0 mph 95 % 0.00 in 0 W/m2
01:40 31.4 °F 30.4 °F 30.02 in Calm   -999.0 mph 96 % 0.00 in 0 W/m2
01:45 31.4 °F 30.4 °F 30.02 in Calm   -999.0 mph 96 % 0.00 in 0 W/m2
01:50 31.4 °F 30.4 °F 30.02 in Calm   -999.0 mph 96 % 0.00 in 0 W/m2
01:55 31.7 °F 30.7 °F 30.02 in Calm   -999.0 mph 96 % 0.00 in 0 W/m2
02:00 31.7 °F 30.7 °F 30.02 in Calm   -999.0 mph 96 % 0.00 in 0 W/m2
02:05 31.7 °F 30.7 °F 30.02 in Calm   -999.0 mph 96 % 0.00 in 0 W/m2
02:10 31.8 °F 30.8 °F 30.01 in Calm   -999.0 mph 96 % 0.00 in 0 W/m2
02:15 31.8 °F 30.8 °F 30.01 in Calm   -999.0 mph 96 % 0.00 in 0 W/m2
02:20 31.8 °F 30.8 °F 30.01 in Calm   -999.0 mph 96 % 0.00 in 0 W/m2
02:25 31.5 °F 30.2 °F 30.01 in Calm   -999.0 mph 95 % 0.00 in 0 W/m2
02:30 31.5 °F 30.2 °F 30.01 in Calm   -999.0 mph 95 % 0.00 in 0 W/m2
02:35 31.5 °F 30.2 °F 30.01 in Calm   -999.0 mph 95 % 0.00 in 0 W/m2
02:40 31.2 °F 30.2 °F 30.01 in Calm   -999.0 mph 96 % 0.00 in 0 W/m2
02:45 31.2 °F 30.2 °F 30.01 in Calm   -999.0 mph 96 % 0.00 in 0 W/m2
02:50 31.2 °F 30.2 °F 30.01 in Calm   -999.0 mph 96 % 0.00 in 0 W/m2
02:55 31.0 °F 30.0 °F 30.02 in Calm   -999.0 mph 96 % 0.00 in 0 W/m2
03:00 31.0 °F 30.0 °F 30.02 in Calm   -999.0 mph 96 % 0.00 in 0 W/m2
03:05 31.0 °F 30.0 °F 30.02 in Calm   -999.0 mph 96 % 0.00 in 0 W/m2
03:10 30.7 °F 29.7 °F 30.02 in Calm   -999.0 mph 96 % 0.00 in 0 W/m2
03:15 30.7 °F 29.7 °F 30.02 in Calm   -999.0 mph 96 % 0.00 in 0 W/m2
03:20 30.7 °F 29.7 °F 30.02 in Calm   -999.0 mph 96 % 0.00 in 0 W/m2
03:25 30.7 °F 29.7 °F 30.03 in Calm   -999.0 mph 96 % 0.00 in 0 W/m2
03:30 30.7 °F 29.7 °F 30.03 in Calm   -999.0 mph 96 % 0.00 in 0 W/m2
03:35 30.7 °F 29.7 °F 30.03 in Calm   -999.0 mph 96 % 0.00 in 0 W/m2
03:40 30.6 °F 29.6 °F 30.03 in Calm   -999.0 mph 96 % 0.00 in 0 W/m2
03:45 30.6 °F 29.6 °F 30.03 in Calm   -999.0 mph 96 % 0.00 in 0 W/m2
03:50 30.6 °F 29.6 °F 30.03 in Calm   -999.0 mph 96 % 0.00 in 0 W/m2
03:55 30.2 °F 29.2 °F 30.04 in Calm   -999.0 mph 96 % 0.00 in 0 W/m2
04:00 30.2 °F 29.2 °F 30.04 in Calm   -999.0 mph 96 % 0.00 in 0 W/m2
04:05 30.2 °F 29.2 °F 30.04 in Calm   -999.0 mph 96 % 0.00 in 0 W/m2
04:10 29.9 °F 28.9 °F 30.04 in Calm   -999.0 mph 96 % 0.00 in 0 W/m2
04:15 29.9 °F 28.9 °F 30.04 in Calm   -999.0 mph 96 % 0.00 in 0 W/m2
04:20 29.9 °F 28.9 °F 30.04 in Calm   -999.0 mph 96 % 0.00 in 0 W/m2
04:25 30.2 °F 29.2 °F 30.04 in Calm   -999.0 mph 96 % 0.00 in 0 W/m2
04:30 30.2 °F 29.2 °F 30.04 in Calm   -999.0 mph 96 % 0.00 in 0 W/m2
04:35 30.2 °F 29.2 °F 30.04 in Calm   -999.0 mph 96 % 0.00 in 0 W/m2
04:40 30.0 °F 29.0 °F 30.04 in Calm   -999.0 mph 96 % 0.00 in 0 W/m2
04:45 30.0 °F 29.0 °F 30.04 in Calm   -999.0 mph 96 % 0.00 in 0 W/m2
04:50 30.0 °F 29.0 °F 30.04 in Calm   -999.0 mph 96 % 0.00 in 0 W/m2
04:55 29.4 °F 28.4 °F 30.05 in Calm   -999.0 mph 96 % 0.00 in 0 W/m2
05:00 29.4 °F 28.4 °F 30.05 in Calm   -999.0 mph 96 % 0.00 in 0 W/m2
05:05 29.4 °F 28.4 °F 30.05 in Calm   -999.0 mph 96 % 0.00 in 0 W/m2
05:10 29.1 °F 28.1 °F 30.05 in Calm   -999.0 mph 96 % 0.00 in 0 W/m2
05:15 29.1 °F 28.1 °F 30.05 in Calm   -999.0 mph 96 % 0.00 in 0 W/m2
05:20 29.1 °F 28.1 °F 30.05 in Calm   -999.0 mph 96 % 0.00 in 0 W/m2
05:25 28.8 °F 27.8 °F 30.06 in Calm   -999.0 mph 96 % 0.00 in 0 W/m2
05:30 28.8 °F 27.8 °F 30.06 in Calm   -999.0 mph 96 % 0.00 in 0 W/m2
05:35 28.8 °F 27.8 °F 30.06 in Calm   -999.0 mph 96 % 0.00 in 0 W/m2
05:40 28.2 °F 27.2 °F 30.06 in Calm   -999.0 mph 96 % 0.00 in 0 W/m2
05:45 28.2 °F 27.2 °F 30.06 in Calm   -999.0 mph 96 % 0.00 in 0 W/m2
05:50 28.2 °F 27.2 °F 30.06 in Calm   -999.0 mph 96 % 0.00 in 0 W/m2
05:55 28.2 °F 27.2 °F 30.06 in Calm   -999.0 mph 96 % 0.00 in 0 W/m2
06:00 28.2 °F 27.2 °F 30.06 in Calm   -999.0 mph 96 % 0.00 in 0 W/m2
06:05 28.2 °F 27.2 °F 30.06 in Calm   -999.0 mph 96 % 0.00 in 0 W/m2
06:10 28.4 °F 27.4 °F 30.06 in Calm   -999.0 mph 96 % 0.00 in 0 W/m2
06:15 28.4 °F 27.4 °F 30.06 in Calm   -999.0 mph 96 % 0.00 in 0 W/m2
06:20 28.4 °F 27.4 °F 30.06 in Calm   -999.0 mph 96 % 0.00 in 0 W/m2
06:25 28.3 °F 27.3 °F 30.05 in Calm   -999.0 mph 96 % 0.00 in 0 W/m2
06:30 28.3 °F 27.3 °F 30.05 in Calm   -999.0 mph 96 % 0.00 in 0 W/m2
06:35 28.3 °F 27.3 °F 30.05 in Calm   -999.0 mph 96 % 0.00 in 0 W/m2
06:40 27.9 °F 26.9 °F 30.05 in Calm     96 % 0.00 in 0 W/m2
06:45 27.7 °F 26.7 °F 30.05 in Calm     96 % 0.00 in 0 W/m2
06:50 27.5 °F 26.5 °F 30.05 in Calm     96 % 0.00 in 0 W/m2
06:55 27.5 °F 26.5 °F 30.05 in Calm     96 % 0.00 in 0 W/m2
07:00 27.6 °F 26.6 °F 30.05 in Calm     96 % 0.00 in 0 W/m2
07:05 27.8 °F 27.1 °F 30.05 in Calm     97 % 0.00 in 0 W/m2
07:10 27.7 °F 26.7 °F 30.05 in Calm   -999.0 mph 96 % 0.00 in 0 W/m2
07:15 27.6 °F 26.6 °F 30.05 in Calm     96 % 0.00 in 0 W/m2
07:20 27.6 °F 26.6 °F 30.05 in Calm     96 % 0.00 in 0 W/m2
07:25 27.6 °F 26.9 °F 30.05 in Calm     97 % 0.00 in 0 W/m2
07:30 27.6 °F 26.9 °F 30.05 in Calm     97 % 0.00 in 0 W/m2
07:35 27.6 °F 26.6 °F 30.05 in Calm     96 % 0.00 in 5 W/m2
07:40 27.5 °F 26.5 °F 30.06 in Calm     96 % 0.00 in 5 W/m2
07:50 27.3 °F 26.3 °F 30.06 in Calm     96 % 0.00 in 9 W/m2
07:55 27.4 °F 26.4 °F 30.06 in Calm     96 % 0.00 in 12 W/m2
08:00 27.4 °F 26.4 °F 30.06 in Calm     96 % 0.00 in 14 W/m2
08:05 27.6 °F 26.9 °F 30.06 in Calm     97 % 0.00 in 14 W/m2
08:10 27.7 °F 27.0 °F 30.06 in Calm     97 % 0.00 in 18 W/m2
08:20 27.8 °F 27.1 °F 30.06 in Calm     97 % 0.00 in 33 W/m2
08:25 28.0 °F 27.3 °F 30.06 in Calm     97 % 0.00 in 37 W/m2
08:30 28.2 °F 27.5 °F 30.06 in Calm     97 % 0.00 in 37 W/m2
08:35 28.3 °F 27.6 °F 30.06 in Calm     97 % 0.00 in 35 W/m2
08:40 28.4 °F 27.7 °F 30.06 in Calm     97 % 0.00 in 40 W/m2
08:45 28.4 °F 27.7 °F 30.06 in Calm     97 % 0.00 in 51 W/m2
08:55 28.8 °F 28.1 °F 30.06 in Calm     97 % 0.00 in 83 W/m2
09:00 29.2 °F 28.5 °F 30.06 in Calm     97 % 0.00 in 91 W/m2
09:05 29.5 °F 28.8 °F 30.06 in Calm     97 % 0.00 in 118 W/m2
09:10 29.8 °F 29.1 °F 30.06 in Calm     97 % 0.00 in 90 W/m2
09:15 30.1 °F 29.4 °F 30.06 in Calm     97 % 0.00 in 70 W/m2
09:25 30.8 °F 30.0 °F 30.06 in Calm     97 % 0.00 in 65 W/m2
09:30 31.0 °F 30.5 °F 30.07 in Calm     98 % 0.00 in 127 W/m2
09:35 31.2 °F 30.4 °F 30.07 in Calm     97 % 0.00 in 232 W/m2
09:40 31.7 °F 30.9 °F 30.07 in Calm     97 % 0.00 in 202 W/m2
09:45 32.1 °F 31.6 °F 30.07 in Calm     98 % 0.00 in 243 W/m2
09:50 32.6 °F 31.8 °F 30.06 in Calm     97 % 0.00 in 250 W/m2
10:00 33.9 °F 33.4 °F 30.06 in Calm     98 % 0.00 in 290 W/m2
10:05 34.8 °F 34.3 °F 30.06 in Calm     98 % 0.00 in 294 W/m2
10:10 35.5 °F 35.0 °F 30.06 in Calm     98 % 0.00 in 185 W/m2
10:15 36.0 °F 35.5 °F 30.06 in Calm   2.0 mph 98 % 0.00 in 163 W/m2
10:20 36.2 °F 35.7 °F 30.06 in SE 1.0 mph 2.0 mph 98 % 0.00 in 169 W/m2
10:30 36.7 °F 35.9 °F 30.05 in ESE 2.0 mph 2.0 mph 97 % 0.00 in 172 W/m2
10:35 36.9 °F 36.1 °F 30.06 in ESE 1.0 mph 2.0 mph 97 % 0.00 in 214 W/m2
10:40 37.2 °F 36.4 °F 30.05 in Calm     97 % 0.00 in 197 W/m2
10:45 37.6 °F 36.8 °F 30.06 in ESE 1.0 mph 1.0 mph 97 % 0.00 in 171 W/m2
10:50 37.8 °F 37.0 °F 30.06 in Calm   1.0 mph 97 % 0.00 in 165 W/m2
10:55 37.8 °F 36.8 °F 30.05 in ESE 1.0 mph 1.0 mph 96 % 0.00 in 160 W/m2
11:05 37.8 °F 36.5 °F 30.05 in East 1.0 mph 3.0 mph 95 % 0.00 in 144 W/m2
11:10 37.9 °F 36.6 °F 30.05 in East 1.0 mph 1.0 mph 95 % 0.00 in 316 W/m2
11:15 38.5 °F 37.5 °F 30.05 in Calm   2.0 mph 96 % 0.00 in 390 W/m2
11:20 39.2 °F 37.9 °F 30.05 in East 1.0 mph 2.0 mph 95 % 0.00 in 410 W/m2
11:25 39.9 °F 38.6 °F 30.05 in East 1.0 mph 2.0 mph 95 % 0.00 in 399 W/m2
11:35 41.0 °F 39.1 °F 30.05 in South 5.0 mph 6.0 mph 93 % 0.00 in 394 W/m2
11:40 41.5 °F 39.3 °F 30.05 in SSE 5.0 mph 6.0 mph 92 % 0.00 in 388 W/m2
11:45 41.8 °F 39.1 °F 30.04 in SSE 6.0 mph 6.0 mph 90 % 0.00 in 401 W/m2
11:50 42.0 °F 39.0 °F 30.04 in SSE 6.0 mph 6.0 mph 89 % 0.00 in 132 W/m2
11:55 41.8 °F 38.8 °F 30.04 in SE 6.0 mph 9.0 mph 89 % 0.00 in 125 W/m2
12:00 41.7 °F 38.7 °F 30.04 in SE 6.0 mph 6.0 mph 89 % 0.00 in 448 W/m2
12:10 42.2 °F 38.9 °F 30.04 in SSE 6.0 mph 10.0 mph 88 % 0.00 in 141 W/m2
12:15 42.0 °F 38.4 °F 30.04 in SE 7.0 mph 10.0 mph 87 % 0.00 in 171 W/m2
12:20 41.8 °F 38.2 °F 30.03 in South 8.0 mph 8.0 mph 87 % 0.00 in 171 W/m2
12:25 42.0 °F 38.7 °F 30.02 in SE 6.0 mph 10.0 mph 88 % 0.00 in 397 W/m2
12:30 42.1 °F 38.2 °F 30.02 in SSE 7.0 mph 7.0 mph 86 % 0.00 in 211 W/m2
12:40 42.3 °F 38.4 °F 30.02 in SSW 7.0 mph 9.0 mph 86 % 0.00 in 241 W/m2
12:45 42.6 °F 38.7 °F 30.02 in South 7.0 mph 10.0 mph 86 % 0.00 in 243 W/m2
12:50 42.8 °F 38.6 °F 30.02 in SSE 7.0 mph 7.0 mph 85 % 0.00 in 287 W/m2
12:55 43.1 °F 38.6 °F 30.01 in SSE 8.0 mph 8.0 mph 84 % 0.00 in 301 W/m2
13:00 43.3 °F 38.5 °F 30.01 in SE 9.0 mph 10.0 mph 83 % 0.00 in 251 W/m2
13:05 43.4 °F 38.6 °F 30.01 in SSE 9.0 mph 10.0 mph 83 % 0.00 in 181 W/m2
13:15 43.3 °F 37.9 °F 30.00 in South 11.0 mph 11.0 mph 81 % 0.00 in 193 W/m2
13:20 43.2 °F 37.8 °F 30.00 in SSE 12.0 mph 12.0 mph 81 % 0.00 in 213 W/m2
13:25 43.2 °F 37.8 °F 30.00 in South 10.0 mph 12.0 mph 81 % 0.00 in 128 W/m2
13:30 43.2 °F 37.8 °F 29.99 in SSE 9.0 mph 10.0 mph 81 % 0.00 in 121 W/m2
13:35 43.0 °F 37.6 °F 29.98 in South 10.0 mph 10.0 mph 81 % 0.00 in 134 W/m2
13:45 42.8 °F 37.4 °F 29.98 in South 11.0 mph 13.0 mph 81 % 0.00 in 109 W/m2
13:50 42.7 °F 37.3 °F 29.98 in SSE 11.0 mph 13.0 mph 81 % 0.00 in 120 W/m2
13:55 42.7 °F 37.3 °F 29.98 in South 10.0 mph 13.0 mph 81 % 0.00 in 134 W/m2
14:00 42.8 °F 37.4 °F 29.98 in SE 9.0 mph 9.0 mph 81 % 0.00 in 137 W/m2
14:05 42.9 °F 37.8 °F 29.97 in SSE 8.0 mph 10.0 mph 82 % 0.00 in 127 W/m2
14:10 42.9 °F 37.5 °F 29.97 in South 8.0 mph 10.0 mph 81 % 0.00 in 125 W/m2
14:20 42.9 °F 37.5 °F 29.97 in SSE 10.0 mph 10.0 mph 81 % 0.00 in 107 W/m2
14:25 43.0 °F 37.6 °F 29.97 in SSE 8.0 mph 10.0 mph 81 % 0.00 in 113 W/m2
14:30 42.9 °F 37.2 °F 29.97 in South 10.0 mph 10.0 mph 80 % 0.00 in 102 W/m2
14:35 42.9 °F 37.5 °F 29.97 in SSW 11.0 mph 11.0 mph 81 % 0.00 in 90 W/m2
14:40 42.9 °F 37.5 °F 29.97 in South 8.0 mph 8.0 mph 81 % 0.00 in 86 W/m2
14:50 43.0 °F 37.9 °F 29.97 in SSE 7.0 mph 13.0 mph 82 % 0.00 in 86 W/m2
14:55 43.0 °F 37.6 °F 29.97 in SSE 7.0 mph 13.0 mph 81 % 0.00 in 90 W/m2
15:00 43.0 °F 37.6 °F 29.97 in SSE 8.0 mph 10.0 mph 81 % 0.00 in 77 W/m2
15:05 43.0 °F 37.3 °F 29.97 in SSE 8.0 mph 10.0 mph 80 % 0.00 in 62 W/m2
15:10 43.0 °F 37.3 °F 29.96 in SE 9.0 mph 16.0 mph 80 % 0.00 in 67 W/m2
15:15 43.0 °F 37.6 °F 29.96 in SE 9.0 mph 16.0 mph 81 % 0.00 in 77 W/m2
15:25 42.9 °F 37.5 °F 29.96 in SE 10.0 mph 12.0 mph 81 % 0.00 in 74 W/m2
15:30 42.9 °F 37.2 °F 29.95 in SE 11.0 mph 12.0 mph 80 % 0.00 in 72 W/m2
15:35 42.9 °F 37.5 °F 29.95 in ESE 11.0 mph 12.0 mph 81 % 0.00 in 63 W/m2
15:40 42.9 °F 37.5 °F 29.95 in SE 10.0 mph 13.0 mph 81 % 0.00 in 51 W/m2
15:45 42.8 °F 37.4 °F 29.95 in SSE 10.0 mph 13.0 mph 81 % 0.00 in 40 W/m2
15:55 42.7 °F 37.0 °F 29.95 in South 9.0 mph 13.0 mph 80 % 0.00 in 23 W/m2
16:00 42.6 °F 36.5 °F 29.95 in SSE 10.0 mph 16.0 mph 79 % 0.00 in 21 W/m2
16:05 42.6 °F 36.5 °F 29.95 in SE 10.0 mph 16.0 mph 79 % 0.00 in 21 W/m2
16:15 42.6 °F 36.5 °F 29.95 in SE 10.0 mph 11.0 mph 79 % 0.00 in 26 W/m2
16:20 42.5 °F 36.4 °F 29.95 in SSE 10.0 mph 10.0 mph 79 % 0.00 in 23 W/m2
16:25 42.5 °F 36.1 °F 29.95 in SSE 11.0 mph 11.0 mph 78 % 0.00 in 18 W/m2
16:35 42.4 °F 36.3 °F 29.95 in SE 9.0 mph 10.0 mph 79 % 0.00 in 9 W/m2
16:40 42.4 °F 36.7 °F 29.94 in SSE 8.0 mph 8.0 mph 80 % 0.00 in 7 W/m2
16:45 42.3 °F 36.9 °F 29.94 in SE 7.0 mph 8.0 mph 81 % 0.00 in 5 W/m2
16:50 42.2 °F 37.4 °F 29.94 in SE 7.0 mph 9.0 mph 83 % 0.00 in 0 W/m2
16:55 42.1 °F 37.3 °F 29.94 in ESE 9.0 mph 9.0 mph 83 % 0.00 in 0 W/m2
17:05 41.9 °F 37.4 °F 29.94 in SE 10.0 mph 10.0 mph 84 % 0.00 in 0 W/m2
17:10 41.8 °F 37.6 °F 29.94 in SE 10.0 mph 18.0 mph 85 % 0.00 in 0 W/m2
17:15 41.7 °F 37.8 °F 29.94 in SSE 9.0 mph 18.0 mph 86 % 0.00 in 0 W/m2
17:20 41.6 °F 37.7 °F 29.93 in SSE 10.0 mph 10.0 mph 86 % 0.00 in 0 W/m2
17:25 41.4 °F 37.8 °F 29.94 in SE 10.0 mph 13.0 mph 87 % 0.00 in 0 W/m2
17:35 41.1 °F 38.1 °F 29.94 in South 10.0 mph 10.0 mph 89 % 0.00 in 0 W/m2
17:40 41.0 °F 38.0 °F 29.93 in SE 10.0 mph 12.0 mph 89 % 0.00 in 0 W/m2
17:45 40.8 °F 37.8 °F 29.94 in South 10.0 mph 12.0 mph 89 % 0.00 in 0 W/m2
17:50 40.7 °F 38.0 °F 29.94 in SSE 8.0 mph 11.0 mph 90 % 0.00 in 0 W/m2
17:55 40.5 °F 37.8 °F 29.94 in SSE 9.0 mph 12.0 mph 90 % 0.00 in 0 W/m2
18:00 40.3 °F 37.6 °F 29.94 in South 11.0 mph 12.0 mph 90 % 0.05 in 0 W/m2
18:10 40.0 °F 37.3 °F 29.93 in SE 10.0 mph 10.0 mph 90 % 0.05 in 0 W/m2
18:15 39.9 °F 37.2 °F 29.93 in SSE 8.0 mph 10.0 mph 90 % 0.04 in 0 W/m2
18:20 39.7 °F 37.0 °F 29.93 in SE 9.0 mph 10.0 mph 90 % 0.00 in 0 W/m2
18:25 39.6 °F 37.2 °F 29.93 in SSE 10.0 mph 12.0 mph 91 % 0.00 in 0 W/m2
18:30 39.4 °F 37.0 °F 29.93 in South 11.0 mph 11.0 mph 91 % 0.00 in 0 W/m2
18:40 39.2 °F 36.8 °F 29.93 in SE 11.0 mph 11.0 mph 91 % 0.00 in 0 W/m2
18:45 38.9 °F 36.8 °F 29.92 in SE 11.0 mph 13.0 mph 92 % 0.00 in 0 W/m2
18:50 38.8 °F 36.7 °F 29.92 in SSE 12.0 mph 12.0 mph 92 % 0.00 in 0 W/m2
18:55 38.5 °F 36.4 °F 29.92 in SE 10.0 mph 13.0 mph 92 % 0.00 in 0 W/m2
19:00 38.4 °F 36.3 °F 29.92 in SE 10.0 mph 11.0 mph 92 % 0.00 in 0 W/m2
19:05 38.3 °F 36.5 °F 29.92 in SSE 10.0 mph 14.0 mph 93 % 0.00 in 0 W/m2
19:15 38.1 °F 36.3 °F 29.92 in SSE 10.0 mph 11.0 mph 93 % 0.07 in 0 W/m2
19:20 38.1 °F 36.3 °F 29.92 in SE 10.0 mph 10.0 mph 93 % 0.05 in 0 W/m2
19:25 38.1 °F 36.5 °F 29.92 in SE 10.0 mph 10.0 mph 94 % 0.05 in 0 W/m2
19:45 38.1 °F 36.5 °F 29.91 in SE 12.0 mph 12.0 mph 94 % 0.04 in 0 W/m2
19:50 38.1 °F 36.5 °F 29.90 in SSE 11.0 mph 12.0 mph 94 % 0.00 in 0 W/m2
20:00 38.1 °F 36.5 °F 29.90 in SE 11.0 mph 12.0 mph 94 % 0.00 in 0 W/m2
20:05 38.1 °F 36.5 °F 29.90 in SE 11.0 mph 12.0 mph 94 % 0.06 in 0 W/m2
20:10 38.0 °F 36.4 °F 29.90 in SSE 12.0 mph 12.0 mph 94 % 0.07 in 0 W/m2
20:15 37.9 °F 36.3 °F 29.90 in SSE 13.0 mph 16.0 mph 94 % 0.13 in 0 W/m2
20:20 37.6 °F 36.0 °F 29.90 in South 15.0 mph 18.0 mph 94 % 0.11 in 0 W/m2
20:25 37.5 °F 35.9 °F 29.90 in SE 14.0 mph 18.0 mph 94 % 0.06 in 0 W/m2
20:35 37.5 °F 35.9 °F 29.90 in SE 13.0 mph 19.0 mph 94 % 0.00 in 0 W/m2
20:40 37.5 °F 35.9 °F 29.89 in SE 11.0 mph 19.0 mph 94 % 0.00 in 0 W/m2
20:45 37.5 °F 35.9 °F 29.89 in SE 11.0 mph 19.0 mph 94 % 0.00 in 0 W/m2
20:50 37.5 °F 35.9 °F 29.89 in SE 11.0 mph 19.0 mph 94 % 0.00 in 0 W/m2
21:00 37.5 °F 36.2 °F 29.89 in SE 12.0 mph 12.0 mph 95 % 0.00 in 0 W/m2
21:05 37.5 °F 36.2 °F 29.89 in SE 9.0 mph 19.0 mph 95 % 0.00 in 0 W/m2
21:10 37.4 °F 36.1 °F 29.88 in ESE 9.0 mph 19.0 mph 95 % 0.10 in 0 W/m2
21:20 37.4 °F 36.1 °F 29.88 in SSE 11.0 mph 19.0 mph 95 % 0.05 in 0 W/m2
21:25 37.2 °F 35.9 °F 29.89 in SSE 11.0 mph 19.0 mph 95 % 0.05 in 0 W/m2
21:30 37.1 °F 35.8 °F 29.89 in SE 12.0 mph 12.0 mph 95 % 0.14 in 0 W/m2
21:40 36.9 °F 35.6 °F 29.88 in ESE 12.0 mph 19.0 mph 95 % 0.08 in 0 W/m2
21:45 37.0 °F 35.7 °F 29.88 in SSW 12.0 mph 19.0 mph 95 % 0.05 in 0 W/m2
21:50 37.0 °F 35.7 °F 29.88 in SE 11.0 mph 19.0 mph 95 % 0.00 in 0 W/m2
21:55 37.0 °F 35.7 °F 29.88 in South 10.0 mph 19.0 mph 95 % 0.00 in 0 W/m2
22:00 37.1 °F 35.8 °F 29.88 in ESE 9.0 mph 9.0 mph 95 % 0.00 in 0 W/m2
22:05 37.1 °F 35.8 °F 29.88 in SE 9.0 mph 10.0 mph 95 % 0.00 in 0 W/m2
22:15 37.2 °F 36.2 °F 29.87 in ESE 10.0 mph 19.0 mph 96 % 0.00 in 0 W/m2
22:20 37.2 °F 36.2 °F 29.86 in SE 10.0 mph 10.0 mph 96 % 0.00 in 0 W/m2
22:25 37.2 °F 36.2 °F 29.86 in SSE 12.0 mph 15.0 mph 96 % 0.00 in 0 W/m2
22:30 37.3 °F 36.3 °F 29.86 in SSE 12.0 mph 12.0 mph 96 % 0.00 in 0 W/m2
22:35 37.3 °F 36.3 °F 29.86 in SE 11.0 mph 16.0 mph 96 % 0.00 in 0 W/m2
22:45 37.2 °F 36.2 °F 29.85 in SSE 12.0 mph 19.0 mph 96 % 0.00 in 0 W/m2
22:50 37.2 °F 36.2 °F 29.86 in SSE 11.0 mph 19.0 mph 96 % 0.00 in 0 W/m2
22:55 37.2 °F 36.2 °F 29.86 in ESE 10.0 mph 19.0 mph 96 % 0.00 in 0 W/m2
23:00 37.3 °F 36.3 °F 29.86 in SSE 9.0 mph 9.0 mph 96 % 0.00 in 0 W/m2
23:05 37.3 °F 36.3 °F 29.86 in SE 9.0 mph 11.0 mph 96 % 0.00 in 0 W/m2
23:10 37.4 °F 36.4 °F 29.85 in ESE 10.0 mph 10.0 mph 96 % 0.00 in 0 W/m2
23:20 37.6 °F 36.6 °F 29.85 in SE 10.0 mph 10.0 mph 96 % 0.00 in 0 W/m2
23:25 37.7 °F 36.9 °F 29.85 in SE 10.0 mph 19.0 mph 97 % 0.00 in 0 W/m2
23:30 37.8 °F 37.0 °F 29.85 in ESE 9.0 mph 9.0 mph 97 % 0.00 in 0 W/m2
23:35 37.8 °F 37.0 °F 29.85 in SSE 9.0 mph 19.0 mph 97 % 0.00 in 0 W/m2
23:40 37.9 °F 37.1 °F 29.86 in SSE 8.0 mph 19.0 mph 97 % 0.00 in 0 W/m2
23:50 38.0 °F 37.2 °F 29.86 in ESE 8.0 mph 19.0 mph 97 % 0.00 in 0 W/m2
23:55 38.0 °F 37.2 °F 29.85 in South 8.0 mph 19.0 mph 97 % 0.00 in 0 W/m2
Delerius-Weather
Compliments of Weather Underground - 2 mb

Data updates at regular intervals.